createdAt,value
2023-05-08T00:00:47.931Z,101223.84
2023-05-08T00:03:14.487Z,101213.09
2023-05-08T00:05:42.556Z,101212.19
2023-05-08T00:08:09.121Z,101205.03
2023-05-08T00:10:35.786Z,101210.38
2023-05-08T00:13:02.364Z,101213.06
2023-05-08T00:15:28.852Z,101209.53
2023-05-08T00:17:55.397Z,101214.03
2023-05-08T00:20:21.868Z,101223.09
2023-05-08T00:22:49.652Z,101223.13
2023-05-08T00:25:16.275Z,101222.22
2023-05-08T00:27:42.709Z,101225.84
2023-05-08T00:30:10.038Z,101214.16
2023-05-08T00:32:36.643Z,101210.59
2023-05-08T00:35:03.335Z,101208.81
2023-05-08T00:37:30.090Z,101217.78
2023-05-08T00:39:57.958Z,101227.69
2023-05-08T00:42:24.852Z,101227.75
2023-05-08T00:44:51.414Z,101223.25
2023-05-08T00:51:08.282Z,101208.06
2023-05-08T00:53:38.500Z,101219.75
2023-05-08T00:56:10.038Z,101215.28
2023-05-08T00:58:36.617Z,101209.00
2023-05-08T01:01:03.288Z,101210.84
2023-05-08T01:03:30.864Z,101213.53
2023-05-08T01:05:57.377Z,101221.59
2023-05-08T01:08:23.923Z,101218.91
2023-05-08T01:11:01.429Z,101211.75
2023-05-08T01:13:42.345Z,101218.94
2023-05-08T01:16:14.150Z,101220.72
2023-05-08T01:18:45.737Z,101218.97
2023-05-08T01:21:17.621Z,101225.28
2023-05-08T01:24:14.061Z,101233.34
2023-05-08T01:26:56.289Z,101229.81
2023-05-08T01:29:43.750Z,101236.03
2023-05-08T01:32:17.305Z,101238.81
2023-05-08T01:34:50.468Z,101234.34
2023-05-08T01:37:26.066Z,101242.44
2023-05-08T01:40:02.548Z,101252.31
2023-05-08T01:42:39.114Z,101242.47
2023-05-08T01:45:12.644Z,101245.19
2023-05-08T01:47:42.070Z,101244.31
2023-05-08T01:50:16.101Z,101249.69
2023-05-08T01:52:46.550Z,101242.53
2023-05-08T01:55:17.620Z,101237.19
2023-05-08T01:57:47.258Z,101238.97
2023-05-08T02:00:17.136Z,101234.50
2023-05-08T02:02:45.669Z,101235.41
2023-05-08T02:05:14.063Z,101242.56
2023-05-08T02:07:42.487Z,101239.91
2023-05-08T02:10:11.424Z,101240.78
2023-05-08T02:12:39.873Z,101238.13
2023-05-08T02:15:09.071Z,101242.63
2023-05-08T02:17:37.833Z,101236.34
2023-05-08T02:20:07.414Z,101236.34
2023-05-08T02:22:35.932Z,101236.34
2023-05-08T02:25:03.532Z,101244.44
2023-05-08T02:27:30.800Z,101242.66
2023-05-08T02:29:57.572Z,101249.84
2023-05-08T02:32:26.782Z,101245.38
2023-05-08T02:35:02.999Z,101251.66
2023-05-08T02:37:33.902Z,101253.47
2023-05-08T02:40:03.915Z,101245.38
2023-05-08T02:42:30.711Z,101254.38
2023-05-08T02:44:57.543Z,101248.06
2023-05-08T02:47:29.695Z,101247.19
2023-05-08T02:50:03.223Z,101253.47
2023-05-08T02:52:34.994Z,101257.06
2023-05-08T02:55:10.820Z,101251.66
2023-05-08T02:57:43.452Z,101253.47
2023-05-08T03:00:16.217Z,101249.91
2023-05-08T03:02:48.174Z,101240.94
2023-05-08T03:05:18.678Z,101254.38
2023-05-08T03:07:47.705Z,101249.91
2023-05-08T03:10:16.061Z,101245.44
2023-05-08T03:12:45.862Z,101257.97
2023-05-08T03:15:19.335Z,101248.09
2023-05-08T03:17:47.670Z,101259.78
2023-05-08T03:20:17.542Z,101257.09
2023-05-08T03:22:47.211Z,101259.78
2023-05-08T03:25:17.254Z,101254.41
2023-05-08T03:27:44.979Z,101261.56
2023-05-08T03:30:13.310Z,101256.19
2023-05-08T03:32:44.867Z,101261.56
2023-05-08T03:35:11.897Z,101253.53
2023-05-08T03:37:38.363Z,101256.19
2023-05-08T03:40:08.947Z,101249.03
2023-05-08T03:42:37.220Z,101249.94
2023-05-08T03:45:05.357Z,101248.16
2023-05-08T03:47:32.861Z,101244.56
2023-05-08T03:50:00.276Z,101257.13
2023-05-08T03:52:26.886Z,101249.06
2023-05-08T03:54:54.476Z,101258.88
2023-05-08T03:57:27.469Z,101258.91
2023-05-08T04:00:02.698Z,101257.09
2023-05-08T04:02:47.113Z,101253.50
2023-05-08T04:05:24.334Z,101253.50
2023-05-08T04:07:56.316Z,101259.78
2023-05-08T04:10:29.188Z,101251.69
2023-05-08T04:13:05.111Z,101261.56
2023-05-08T04:15:36.553Z,101268.72
2023-05-08T04:18:07.871Z,101268.72
2023-05-08T04:20:35.099Z,101267.84
2023-05-08T04:23:04.404Z,101267.84
2023-05-08T04:25:35.614Z,101266.00
2023-05-08T04:28:04.674Z,101272.28
2023-05-08T04:30:32.239Z,101266.00
2023-05-08T04:33:02.438Z,101283.03
2023-05-08T04:35:29.966Z,101278.53
2023-05-08T04:37:58.323Z,101283.91
2023-05-08T04:40:25.053Z,101277.63
2023-05-08T04:42:51.849Z,101276.72
2023-05-08T04:45:21.009Z,101273.13
2023-05-08T04:47:47.554Z,101289.25
2023-05-08T04:50:14.129Z,101296.41
2023-05-08T04:52:41.531Z,101294.63
2023-05-08T04:55:09.186Z,101302.66
2023-05-08T04:57:38.211Z,101291.94
2023-05-08T05:00:05.981Z,101300.84
2023-05-08T05:02:37.747Z,101295.44
2023-05-08T05:05:05.621Z,101300.81
2023-05-08T05:07:32.103Z,101304.31
2023-05-08T05:09:59.525Z,101308.78
2023-05-08T05:12:27.172Z,101308.72
2023-05-08T05:14:56.668Z,101309.53
2023-05-08T05:17:24.212Z,101302.22
2023-05-08T05:19:53.382Z,101297.38
2023-05-08T05:22:20.625Z,101289.22
2023-05-08T05:24:47.026Z,101277.19
2023-05-08T05:27:13.529Z,101279.19
2023-05-08T05:29:40.121Z,101284.84
2023-05-08T05:32:06.687Z,101282.25
2023-05-08T05:34:33.107Z,101283.44
2023-05-08T05:37:00.857Z,101282.53
2023-05-08T05:39:27.316Z,101285.25
2023-05-08T05:41:53.874Z,101276.69
2023-05-08T05:44:20.402Z,101276.97
2023-05-08T05:46:47.283Z,101278.50
2023-05-08T05:49:13.809Z,101280.50
2023-05-08T05:51:40.498Z,101273.03
2023-05-08T05:54:08.420Z,101270.25
2023-05-08T05:56:34.978Z,101287.16
2023-05-08T05:59:01.522Z,101286.88
2023-05-08T06:01:28.815Z,101282.22
2023-05-08T06:03:56.086Z,101284.91
2023-05-08T06:06:22.576Z,101281.19
2023-05-08T06:08:49.004Z,101288.41
2023-05-08T06:11:16.758Z,101290.38
2023-05-08T06:13:43.346Z,101293.75
2023-05-08T06:16:10.193Z,101299.91
2023-05-08T06:18:36.588Z,101287.75
2023-05-08T06:21:03.240Z,101290.06
2023-05-08T06:23:29.828Z,101291.19
2023-05-08T06:25:56.209Z,101299.63
2023-05-08T06:28:24.061Z,101308.88
2023-05-08T06:30:50.455Z,101297.06
2023-05-08T06:33:16.896Z,101300.47
2023-05-08T06:35:46.244Z,101297.44
2023-05-08T06:38:13.150Z,101296.91
2023-05-08T06:40:41.884Z,101301.56
2023-05-08T06:43:08.413Z,101295.38
2023-05-08T06:45:36.178Z,101295.34
2023-05-08T06:48:02.779Z,101302.13
2023-05-08T06:50:29.337Z,101300.91
2023-05-08T06:52:55.818Z,101294.28
2023-05-08T06:55:22.321Z,101299.16
2023-05-08T06:57:48.837Z,101305.16
2023-05-08T07:00:15.703Z,101291.22
2023-05-08T07:02:43.456Z,101290.63
2023-05-08T07:05:10.206Z,101292.22
2023-05-08T07:07:36.845Z,101299.75
2023-05-08T07:10:04.290Z,101297.34
2023-05-08T07:12:31.314Z,101297.44
2023-05-08T07:14:58.080Z,101301.22
2023-05-08T07:17:24.589Z,101293.66
2023-05-08T07:19:52.440Z,101293.78
2023-05-08T07:22:18.928Z,101292.16
2023-05-08T07:24:45.337Z,101298.91
2023-05-08T07:27:11.791Z,101306.38
2023-05-08T07:29:38.201Z,101298.47
2023-05-08T07:32:07.224Z,101300.88
2023-05-08T07:34:33.876Z,101302.03
2023-05-08T07:37:01.620Z,101308.84
2023-05-08T07:39:28.001Z,101301.72
2023-05-08T07:41:54.461Z,101298.38
2023-05-08T07:44:20.883Z,101287.06
2023-05-08T07:46:47.342Z,101300.50
2023-05-08T07:49:13.804Z,101295.78
2023-05-08T07:51:40.282Z,101283.97
2023-05-08T07:54:08.105Z,101291.28
2023-05-08T07:56:34.514Z,101291.41
2023-05-08T07:59:00.931Z,101291.47
2023-05-08T08:01:27.369Z,101293.09
2023-05-08T08:03:53.841Z,101288.72
2023-05-08T08:06:20.338Z,101293.22
2023-05-08T08:08:46.746Z,101287.59
2023-05-08T08:11:14.474Z,101295.97
2023-05-08T08:13:41.003Z,101294.34
2023-05-08T08:16:07.527Z,101293.66
2023-05-08T08:18:34.560Z,101292.16
2023-05-08T08:21:00.966Z,101291.47
2023-05-08T08:23:27.373Z,101291.41
2023-05-08T08:25:53.809Z,101292.56
2023-05-08T08:28:21.513Z,101291.38
2023-05-08T08:30:48.131Z,101295.09
2023-05-08T08:33:16.297Z,101289.16
2023-05-08T08:35:43.938Z,101285.06
2023-05-08T08:38:10.458Z,101292.91
2023-05-08T08:40:39.391Z,101290.19
2023-05-08T08:43:05.890Z,101292.94
2023-05-08T08:45:33.630Z,101293.56
2023-05-08T08:48:02.071Z,101291.25
2023-05-08T08:50:32.198Z,101289.63
2023-05-08T08:53:04.655Z,101289.53
2023-05-08T08:55:33.587Z,101295.34
2023-05-08T08:58:12.902Z,101289.41
2023-05-08T09:00:41.505Z,101296.81
2023-05-08T09:03:08.187Z,101290.44
2023-05-08T09:05:35.671Z,101292.69
2023-05-08T09:08:02.494Z,101285.19
2023-05-08T09:10:28.979Z,101282.25
2023-05-08T09:12:55.468Z,101281.22
2023-05-08T09:15:21.979Z,101281.09
2023-05-08T09:17:49.845Z,101274.81
2023-05-08T09:20:16.348Z,101270.13
2023-05-08T09:22:43.342Z,101279.22
2023-05-08T09:25:10.310Z,101276.38
2023-05-08T09:27:36.865Z,101280.84
2023-05-08T09:30:06.665Z,101282.94
2023-05-08T09:32:34.548Z,101285.25
2023-05-08T09:35:03.135Z,101285.09
2023-05-08T09:37:29.997Z,101282.50
2023-05-08T09:40:13.262Z,101288.16
2023-05-08T09:42:40.117Z,101284.63
2023-05-08T09:45:07.783Z,101276.84
2023-05-08T09:47:35.453Z,101277.31
2023-05-08T09:50:04.775Z,101283.53
2023-05-08T09:52:32.319Z,101279.09
2023-05-08T09:54:59.833Z,101287.00
2023-05-08T09:57:27.193Z,101272.22
2023-05-08T10:00:01.494Z,101270.03
2023-05-08T10:02:28.024Z,101280.41
2023-05-08T10:04:54.520Z,101290.53
2023-05-08T10:07:29.226Z,101293.16
2023-05-08T10:09:59.806Z,101282.00
2023-05-08T10:12:26.720Z,101279.50
2023-05-08T10:14:53.304Z,101273.63
2023-05-08T10:17:25.398Z,101283.72
2023-05-08T10:19:57.454Z,101261.06
2023-05-08T10:22:25.613Z,101265.31
2023-05-08T10:24:56.718Z,101276.66
2023-05-08T10:27:30.664Z,101269.00
2023-05-08T10:30:01.384Z,101270.47
2023-05-08T10:32:31.355Z,101262.72
2023-05-08T10:34:59.963Z,101268.69
2023-05-08T10:37:29.540Z,101260.78
2023-05-08T10:39:58.073Z,101259.19
2023-05-08T10:42:25.806Z,101260.94
2023-05-08T10:44:53.412Z,101257.88
2023-05-08T10:47:27.682Z,101262.94
2023-05-08T10:50:00.640Z,101265.13
2023-05-08T10:52:34.091Z,101257.88
2023-05-08T10:55:24.843Z,101250.88
2023-05-08T10:58:10.627Z,101252.97
2023-05-08T11:01:11.517Z,101241.88
2023-05-08T11:03:39.653Z,101245.97
2023-05-08T11:06:06.252Z,101242.53
2023-05-08T11:08:32.658Z,101241.38
2023-05-08T11:11:06.829Z,101251.41
2023-05-08T11:13:34.868Z,101248.19
2023-05-08T11:16:02.001Z,101237.81
2023-05-08T11:18:41.867Z,101228.38
2023-05-08T11:21:15.557Z,101232.31
2023-05-08T11:23:42.053Z,101250.41
2023-05-08T11:26:14.416Z,101239.72
2023-05-08T11:28:56.234Z,101236.28
2023-05-08T11:31:23.236Z,101236.28
2023-05-08T11:33:49.923Z,101225.88
2023-05-08T11:36:17.425Z,101225.28
2023-05-08T11:38:44.358Z,101228.31
2023-05-08T11:41:21.148Z,101218.81
2023-05-08T11:44:15.275Z,101220.63
2023-05-08T11:46:50.168Z,101217.81
2023-05-08T11:49:23.816Z,101215.63
2023-05-08T11:51:54.186Z,101226.91
2023-05-08T11:54:21.851Z,101224.34
2023-05-08T11:56:51.644Z,101210.66
2023-05-08T11:59:18.603Z,101212.25
2023-05-08T12:01:50.808Z,101216.38
2023-05-08T12:04:20.518Z,101208.38
2023-05-08T12:06:47.351Z,101214.47
2023-05-08T12:09:15.262Z,101205.53
2023-05-08T12:11:43.064Z,101202.28
2023-05-08T12:14:11.802Z,101198.75
2023-05-08T12:16:39.533Z,101192.97
2023-05-08T12:19:10.155Z,101194.09
2023-05-08T12:21:37.140Z,101194.94
2023-05-08T12:24:05.982Z,101197.41
2023-05-08T12:26:35.159Z,101192.16
2023-05-08T12:29:05.560Z,101194.50
2023-05-08T12:31:33.708Z,101191.25
2023-05-08T12:34:03.867Z,101198.34
2023-05-08T12:36:33.801Z,101184.97
2023-05-08T12:39:09.349Z,101186.94
2023-05-08T12:41:47.850Z,101184.34
2023-05-08T12:44:22.729Z,101187.47
2023-05-08T12:46:52.139Z,101184.66
2023-05-08T12:49:27.104Z,101187.63
2023-05-08T12:52:00.812Z,101181.34
2023-05-08T12:54:32.409Z,101172.06
2023-05-08T12:56:58.824Z,101172.50
2023-05-08T12:59:28.778Z,101166.28
2023-05-08T13:01:56.713Z,101173.84
2023-05-08T13:04:23.353Z,101155.53
2023-05-08T13:06:54.520Z,101165.28
2023-05-08T13:09:21.032Z,101161.81
2023-05-08T13:11:47.479Z,101161.38
2023-05-08T13:14:13.905Z,101164.00
2023-05-08T13:16:44.252Z,101155.88
2023-05-08T13:19:12.299Z,101148.88
2023-05-08T13:21:38.917Z,101142.34
2023-05-08T13:24:06.002Z,101136.31
2023-05-08T13:26:32.512Z,101131.81
2023-05-08T13:28:59.138Z,101131.44
2023-05-08T13:31:25.615Z,101132.44
2023-05-08T13:33:55.479Z,101121.72
2023-05-08T13:36:23.406Z,101124.09
2023-05-08T13:38:50.949Z,101115.34
2023-05-08T13:41:17.378Z,101114.69
2023-05-08T13:43:43.953Z,101111.59
2023-05-08T13:46:10.709Z,101119.56
2023-05-08T13:48:37.237Z,101095.56
2023-05-08T13:51:04.162Z,101093.03
2023-05-08T13:53:31.879Z,101093.72
2023-05-08T13:55:58.405Z,101087.97
2023-05-08T13:58:26.724Z,101089.25
2023-05-08T14:00:53.331Z,101080.81
2023-05-08T14:03:20.142Z,101087.88
2023-05-08T14:05:46.665Z,101081.66
2023-05-08T14:08:13.173Z,101086.88
2023-05-08T14:10:40.970Z,101086.38
2023-05-08T14:13:07.458Z,101086.50
2023-05-08T14:15:37.416Z,101083.06
2023-05-08T14:18:04.576Z,101089.44
2023-05-08T14:20:31.102Z,101079.78
2023-05-08T14:23:00.085Z,101072.88
2023-05-08T14:25:26.782Z,101080.75
2023-05-08T14:27:54.621Z,101087.34
2023-05-08T14:30:21.139Z,101072.63
2023-05-08T14:32:47.552Z,101078.53
2023-05-08T14:35:14.563Z,101073.91
2023-05-08T14:37:41.136Z,101079.72
2023-05-08T14:40:08.853Z,101085.03
2023-05-08T14:42:35.615Z,101077.97
2023-05-08T14:45:04.151Z,101070.00
2023-05-08T14:47:30.671Z,101068.13
2023-05-08T14:49:57.058Z,101073.06
2023-05-08T14:52:23.496Z,101063.31
2023-05-08T14:54:50.145Z,101061.72
2023-05-08T14:57:16.704Z,101068.34
2023-05-08T14:59:49.346Z,101070.31
2023-05-08T15:02:22.529Z,101069.91
2023-05-08T15:04:49.085Z,101071.47
2023-05-08T15:07:15.592Z,101073.13
2023-05-08T15:09:42.153Z,101065.09
2023-05-08T15:12:08.731Z,101058.63
2023-05-08T15:14:35.141Z,101053.97
2023-05-08T15:17:01.600Z,101068.50
2023-05-08T15:19:29.340Z,101067.56
2023-05-08T15:22:12.467Z,101063.28
2023-05-08T15:24:48.276Z,101065.44
2023-05-08T15:27:14.740Z,101073.59
2023-05-08T15:29:41.224Z,101076.06
2023-05-08T15:32:07.844Z,101072.75
2023-05-08T15:34:36.649Z,101072.28
2023-05-08T15:37:04.479Z,101072.44
2023-05-08T15:39:31.103Z,101076.19
2023-05-08T15:41:57.603Z,101072.66
2023-05-08T15:44:26.607Z,101078.16
2023-05-08T15:46:55.284Z,101077.16
2023-05-08T15:49:21.672Z,101074.19
2023-05-08T15:51:49.527Z,101077.75
2023-05-08T15:54:15.988Z,101086.19
2023-05-08T15:56:42.440Z,101075.41
2023-05-08T15:59:09.251Z,101080.91
2023-05-08T16:01:35.876Z,101077.28
2023-05-08T16:04:02.299Z,101076.38
2023-05-08T16:06:28.791Z,101074.41
2023-05-08T16:08:56.615Z,101073.81
2023-05-08T16:11:23.027Z,101068.06
2023-05-08T16:13:49.442Z,101064.41
2023-05-08T16:16:15.889Z,101075.75
2023-05-08T16:18:42.427Z,101072.34
2023-05-08T16:21:09.426Z,101078.81
2023-05-08T16:23:36.105Z,101079.88
2023-05-08T16:26:03.938Z,101073.91
2023-05-08T16:28:30.365Z,101068.72
2023-05-08T16:30:56.839Z,101068.34
2023-05-08T16:33:23.327Z,101068.22
2023-05-08T16:35:49.968Z,101059.47
2023-05-08T16:38:16.501Z,101061.53
2023-05-08T16:40:42.939Z,101067.56
2023-05-08T16:43:10.901Z,101071.88
2023-05-08T16:45:37.696Z,101072.31
2023-05-08T16:48:04.347Z,101068.91
2023-05-08T16:50:31.134Z,101067.22
2023-05-08T16:52:57.813Z,101066.44
2023-05-08T16:55:24.351Z,101055.41
2023-05-08T16:57:50.816Z,101064.16
2023-05-08T17:00:19.136Z,101058.78
2023-05-08T17:02:46.094Z,101053.06
2023-05-08T17:05:13.066Z,101058.78
2023-05-08T17:07:39.811Z,101067.56
2023-05-08T17:10:07.583Z,101060.47
2023-05-08T17:12:34.176Z,101053.38
2023-05-08T17:15:00.565Z,101056.47
2023-05-08T17:17:28.376Z,101051.94
2023-05-08T17:19:54.988Z,101053.28
2023-05-08T17:22:21.509Z,101047.78
2023-05-08T17:24:47.955Z,101068.69
2023-05-08T17:27:14.653Z,101064.28
2023-05-08T17:29:41.091Z,101062.56
2023-05-08T17:32:07.729Z,101061.00
2023-05-08T17:34:35.540Z,101066.13
2023-05-08T17:37:01.980Z,101061.25
2023-05-08T17:39:28.507Z,101056.25
2023-05-08T17:41:55.018Z,101069.56
2023-05-08T17:44:21.561Z,101070.97
2023-05-08T17:46:47.978Z,101070.53
2023-05-08T17:49:15.871Z,101066.66
2023-05-08T17:51:44.866Z,101082.88
2023-05-08T17:54:11.460Z,101076.81
2023-05-08T17:56:38.003Z,101071.63
2023-05-08T17:59:04.537Z,101075.81
2023-05-08T18:01:30.935Z,101073.44
2023-05-08T18:03:57.875Z,101073.81
2023-05-08T18:06:24.491Z,101069.75
2023-05-08T18:08:52.343Z,101076.56
2023-05-08T18:11:20.642Z,101083.50
2023-05-08T18:13:47.359Z,101081.88
2023-05-08T18:16:15.389Z,101080.53
2023-05-08T18:18:42.015Z,101087.19
2023-05-08T18:21:08.633Z,101083.66
2023-05-08T18:23:35.311Z,101086.91
2023-05-08T18:26:03.368Z,101094.31
2023-05-08T18:28:30.249Z,101098.25
2023-05-08T18:30:56.765Z,101100.63
2023-05-08T18:33:23.227Z,101092.78
2023-05-08T18:35:50.978Z,101096.75
2023-05-08T18:38:17.406Z,101092.56
2023-05-08T18:40:43.940Z,101101.22
2023-05-08T18:43:11.797Z,101095.19
2023-05-08T18:45:38.595Z,101102.50
2023-05-08T18:48:05.261Z,101107.38
2023-05-08T18:50:31.781Z,101099.78
2023-05-08T18:52:58.197Z,101101.94
2023-05-08T18:55:24.600Z,101110.31
2023-05-08T18:57:51.248Z,101108.06
2023-05-08T19:00:22.308Z,101110.22
2023-05-08T19:02:52.717Z,101106.19
2023-05-08T19:05:31.182Z,101112.75
2023-05-08T19:08:08.379Z,101118.59
2023-05-08T19:10:35.270Z,101112.72
2023-05-08T19:13:02.057Z,101110.28
2023-05-08T19:15:30.310Z,101123.25
2023-05-08T19:17:56.835Z,101120.81
2023-05-08T19:20:23.743Z,101129.31
2023-05-08T19:22:51.505Z,101124.09
2023-05-08T19:25:18.112Z,101128.66
2023-05-08T19:27:44.640Z,101128.75
2023-05-08T19:30:12.166Z,101130.53
2023-05-08T19:32:40.428Z,101131.53
2023-05-08T19:35:08.204Z,101130.09
2023-05-08T19:37:35.148Z,101132.19
2023-05-08T19:40:01.562Z,101126.91
2023-05-08T19:42:28.125Z,101125.25
2023-05-08T19:44:54.600Z,101120.97
2023-05-08T19:47:21.045Z,101116.75
2023-05-08T19:49:48.890Z,101120.59
2023-05-08T19:52:15.359Z,101126.28
2023-05-08T19:54:41.774Z,101117.47
2023-05-08T19:57:08.183Z,101129.50
2023-05-08T19:59:34.661Z,101127.03
2023-05-08T20:02:01.212Z,101127.13
2023-05-08T20:04:27.733Z,101120.94
2023-05-08T20:06:55.573Z,101136.53
2023-05-08T20:09:22.008Z,101126.94
2023-05-08T20:11:48.588Z,101133.44
2023-05-08T20:14:15.341Z,101130.91
2023-05-08T20:16:44.626Z,101138.50
2023-05-08T20:19:11.318Z,101143.25
2023-05-08T20:21:37.919Z,101154.31
2023-05-08T20:24:06.526Z,101144.59
2023-05-08T20:26:37.882Z,101147.47
2023-05-08T20:29:06.640Z,101145.00
2023-05-08T20:31:37.804Z,101146.09
2023-05-08T20:34:07.979Z,101136.44
2023-05-08T20:36:42.534Z,101143.69
2023-05-08T20:39:10.748Z,101148.41
2023-05-08T20:41:37.375Z,101145.03
2023-05-08T20:44:07.223Z,101146.91
2023-05-08T20:46:36.656Z,101150.72
2023-05-08T20:49:08.359Z,101147.28
2023-05-08T20:51:35.081Z,101144.69
2023-05-08T20:54:06.797Z,101142.19
2023-05-08T20:56:45.963Z,101146.97
2023-05-08T20:59:20.730Z,101145.28
2023-05-08T21:01:47.978Z,101136.38
2023-05-08T21:04:23.934Z,101150.06
2023-05-08T21:07:08.287Z,101140.44
2023-05-08T21:10:06.379Z,101145.88
2023-05-08T21:13:16.842Z,101138.84
2023-05-08T21:15:55.385Z,101134.59
2023-05-08T21:18:26.332Z,101140.91
2023-05-08T21:21:03.417Z,101135.63
2023-05-08T21:23:54.990Z,101129.56
2023-05-08T21:29:55.457Z,101119.94
2023-05-08T21:32:44.692Z,101113.72
2023-05-08T21:35:34.238Z,101104.84
2023-05-08T21:38:06.744Z,101115.75
2023-05-08T21:40:59.169Z,101110.47
2023-05-08T21:43:36.980Z,101104.38
2023-05-08T21:49:38.885Z,101099.09
2023-05-08T21:52:17.210Z,101103.69
2023-05-08T21:57:58.203Z,101112.84
2023-05-08T22:01:04.971Z,101101.88
2023-05-08T22:04:06.565Z,101102.06
2023-05-08T22:07:02.213Z,101097.69
2023-05-08T22:12:56.588Z,101098.75
2023-05-08T22:15:47.036Z,101115.31
2023-05-08T22:18:46.324Z,101109.94
2023-05-08T22:21:33.047Z,101109.19
2023-05-08T22:24:22.886Z,101099.44
2023-05-08T22:26:51.268Z,101103.22
2023-05-08T22:29:46.625Z,101097.91
2023-05-08T22:32:16.898Z,101100.63
2023-05-08T22:35:00.608Z,101091.63
2023-05-08T22:37:27.346Z,101076.38
2023-05-08T22:39:58.194Z,101075.56
2023-05-08T22:45:19.572Z,101080.06
2023-05-08T22:47:59.053Z,101073.88
2023-05-08T22:50:44.390Z,101078.44
2023-05-08T22:53:40.907Z,101083.16
2023-05-08T22:56:20.744Z,101076.97
2023-05-08T22:58:59.493Z,101077.06
2023-05-08T23:01:35.873Z,101082.69
2023-05-08T23:04:18.284Z,101082.91
2023-05-08T23:06:49.489Z,101076.72
2023-05-08T23:09:24.991Z,101068.72
2023-05-08T23:12:08.894Z,101072.44
2023-05-08T23:14:42.369Z,101073.38
2023-05-08T23:17:25.487Z,101080.63
2023-05-08T23:19:51.999Z,101074.41
2023-05-08T23:22:18.448Z,101069.94
2023-05-08T23:24:44.893Z,101067.28
2023-05-08T23:27:12.784Z,101064.59
2023-05-08T23:29:39.299Z,101065.56
2023-05-08T23:32:05.747Z,101065.59
2023-05-08T23:34:32.192Z,101055.78
2023-05-08T23:37:01.169Z,101054.06
2023-05-08T23:39:27.755Z,101058.66
2023-05-08T23:41:54.314Z,101060.50
2023-05-08T23:44:22.035Z,101059.69
2023-05-08T23:46:48.542Z,101050.75
2023-05-08T23:49:15.011Z,101048.09
2023-05-08T23:51:41.417Z,101051.78
2023-05-08T23:54:07.857Z,101050.91
2023-05-08T23:56:34.264Z,101046.47
2023-05-08T23:59:00.670Z,101046.53
